sensor_id;sensor_type;location;lat;lon;timestamp;P1;durP1;ratioP1;P2;durP2;ratioP2
61003;SDS011;46889;37.310;13.582;2022-12-24T00:04:23;20.92;;;3.38;;
61003;SDS011;46889;37.310;13.582;2022-12-24T00:06:49;19.40;;;4.50;;
61003;SDS011;46889;37.310;13.582;2022-12-24T00:09:15;15.38;;;3.60;;
61003;SDS011;46889;37.310;13.582;2022-12-24T00:11:48;23.10;;;3.75;;
61003;SDS011;46889;37.310;13.582;2022-12-24T00:14:24;16.92;;;4.03;;
61003;SDS011;46889;37.310;13.582;2022-12-24T00:16:51;23.60;;;4.55;;
61003;SDS011;46889;37.310;13.582;2022-12-24T00:19:28;24.38;;;3.95;;
61003;SDS011;46889;37.310;13.582;2022-12-24T00:21:55;18.40;;;3.63;;
61003;SDS011;46889;37.310;13.582;2022-12-24T00:24:27;19.60;;;3.50;;
61003;SDS011;46889;37.310;13.582;2022-12-24T00:26:53;21.05;;;3.85;;
61003;SDS011;46889;37.310;13.582;2022-12-24T00:31:46;17.65;;;3.30;;
61003;SDS011;46889;37.310;13.582;2022-12-24T00:36:53;23.83;;;4.10;;
61003;SDS011;46889;37.310;13.582;2022-12-24T00:39:19;17.77;;;3.57;;
61003;SDS011;46889;37.310;13.582;2022-12-24T00:41:45;17.33;;;3.20;;
61003;SDS011;46889;37.310;13.582;2022-12-24T00:44:30;18.95;;;3.40;;
61003;SDS011;46889;37.310;13.582;2022-12-24T00:46:56;19.50;;;3.53;;
61003;SDS011;46889;37.310;13.582;2022-12-24T00:49:22;24.23;;;3.65;;
61003;SDS011;46889;37.310;13.582;2022-12-24T00:51:48;14.40;;;2.83;;
61003;SDS011;46889;37.310;13.582;2022-12-24T00:56:56;16.67;;;3.03;;
61003;SDS011;46889;37.310;13.582;2022-12-24T00:59:24;16.15;;;3.30;;
61003;SDS011;46889;37.310;13.582;2022-12-24T01:01:50;16.35;;;3.05;;
61003;SDS011;46889;37.310;13.582;2022-12-24T01:04:22;22.27;;;4.53;;
61003;SDS011;46889;37.310;13.582;2022-12-24T01:07:23;24.48;;;3.90;;
61003;SDS011;46889;37.310;13.582;2022-12-24T01:09:50;20.33;;;3.88;;
61003;SDS011;46889;37.310;13.582;2022-12-24T01:12:16;22.48;;;3.72;;
61003;SDS011;46889;37.310;13.582;2022-12-24T01:14:42;21.38;;;3.10;;
61003;SDS011;46889;37.310;13.582;2022-12-24T01:17:10;23.92;;;3.72;;
61003;SDS011;46889;37.310;13.582;2022-12-24T01:19:38;19.48;;;3.28;;
61003;SDS011;46889;37.310;13.582;2022-12-24T01:22:05;22.52;;;3.40;;
61003;SDS011;46889;37.310;13.582;2022-12-24T01:24:42;14.93;;;3.15;;
61003;SDS011;46889;37.310;13.582;2022-12-24T01:27:08;17.15;;;3.17;;
61003;SDS011;46889;37.310;13.582;2022-12-24T01:29:38;18.35;;;3.33;;
61003;SDS011;46889;37.310;13.582;2022-12-24T01:32:06;19.75;;;4.05;;
61003;SDS011;46889;37.310;13.582;2022-12-24T01:34:37;24.10;;;4.25;;
61003;SDS011;46889;37.310;13.582;2022-12-24T01:37:07;25.30;;;3.72;;
61003;SDS011;46889;37.310;13.582;2022-12-24T01:39:52;16.27;;;3.47;;
61003;SDS011;46889;37.310;13.582;2022-12-24T01:42:43;21.05;;;3.42;;
61003;SDS011;46889;37.310;13.582;2022-12-24T01:51:05;17.48;;;3.10;;
61003;SDS011;46889;37.310;13.582;2022-12-24T01:56:07;18.83;;;3.15;;
61003;SDS011;46889;37.310;13.582;2022-12-24T01:58:37;22.00;;;4.07;;
61003;SDS011;46889;37.310;13.582;2022-12-24T02:01:07;19.15;;;3.60;;
61003;SDS011;46889;37.310;13.582;2022-12-24T02:03:36;21.05;;;3.85;;
61003;SDS011;46889;37.310;13.582;2022-12-24T02:06:10;21.73;;;4.13;;
61003;SDS011;46889;37.310;13.582;2022-12-24T02:08:47;21.20;;;3.85;;
61003;SDS011;46889;37.310;13.582;2022-12-24T02:11:18;19.98;;;3.53;;
61003;SDS011;46889;37.310;13.582;2022-12-24T02:13:50;28.67;;;4.30;;
61003;SDS011;46889;37.310;13.582;2022-12-24T02:19:36;34.35;;;4.85;;
61003;SDS011;46889;37.310;13.582;2022-12-24T02:22:46;26.20;;;5.22;;
61003;SDS011;46889;37.310;13.582;2022-12-24T02:28:35;25.77;;;5.00;;
61003;SDS011;46889;37.310;13.582;2022-12-24T02:31:14;23.70;;;4.93;;
61003;SDS011;46889;37.310;13.582;2022-12-24T02:34:08;24.27;;;4.38;;
61003;SDS011;46889;37.310;13.582;2022-12-24T02:37:33;25.77;;;4.63;;
61003;SDS011;46889;37.310;13.582;2022-12-24T02:42:44;21.73;;;4.10;;
61003;SDS011;46889;37.310;13.582;2022-12-24T02:45:20;30.05;;;4.43;;
61003;SDS011;46889;37.310;13.582;2022-12-24T02:48:04;20.10;;;3.90;;
61003;SDS011;46889;37.310;13.582;2022-12-24T02:50:32;17.40;;;3.40;;
61003;SDS011;46889;37.310;13.582;2022-12-24T02:53:00;16.02;;;3.42;;
61003;SDS011;46889;37.310;13.582;2022-12-24T03:07:32;24.90;;;3.95;;
61003;SDS011;46889;37.310;13.582;2022-12-24T03:12:32;20.40;;;4.17;;
61003;SDS011;46889;37.310;13.582;2022-12-24T03:15:12;22.42;;;3.92;;
61003;SDS011;46889;37.310;13.582;2022-12-24T03:17:42;26.75;;;4.53;;
61003;SDS011;46889;37.310;13.582;2022-12-24T03:23:49;27.85;;;5.00;;
61003;SDS011;46889;37.310;13.582;2022-12-24T03:26:16;24.15;;;4.00;;
61003;SDS011;46889;37.310;13.582;2022-12-24T03:28:43;24.30;;;4.15;;
61003;SDS011;46889;37.310;13.582;2022-12-24T03:31:12;19.35;;;4.53;;
61003;SDS011;46889;37.310;13.582;2022-12-24T03:33:40;25.58;;;4.18;;
61003;SDS011;46889;37.310;13.582;2022-12-24T03:36:06;29.48;;;4.95;;
61003;SDS011;46889;37.310;13.582;2022-12-24T03:38:36;31.23;;;4.82;;
61003;SDS011;46889;37.310;13.582;2022-12-24T03:41:14;22.98;;;4.50;;
61003;SDS011;46889;37.310;13.582;2022-12-24T03:43:51;23.23;;;4.38;;
61003;SDS011;46889;37.310;13.582;2022-12-24T03:46:36;27.33;;;3.85;;
61003;SDS011;46889;37.310;13.582;2022-12-24T03:49:02;20.63;;;4.13;;
61003;SDS011;46889;37.310;13.582;2022-12-24T03:51:31;25.88;;;4.13;;
61003;SDS011;46889;37.310;13.582;2022-12-24T03:56:27;23.65;;;4.15;;
61003;SDS011;46889;37.310;13.582;2022-12-24T03:58:59;20.65;;;4.38;;
61003;SDS011;46889;37.310;13.582;2022-12-24T04:01:36;21.52;;;4.18;;
61003;SDS011;46889;37.310;13.582;2022-12-24T04:04:02;24.63;;;4.33;;
61003;SDS011;46889;37.310;13.582;2022-12-24T04:06:39;17.53;;;3.83;;
61003;SDS011;46889;37.310;13.582;2022-12-24T04:09:05;28.15;;;5.10;;
61003;SDS011;46889;37.310;13.582;2022-12-24T04:11:33;21.02;;;3.72;;
61003;SDS011;46889;37.310;13.582;2022-12-24T04:14:00;17.42;;;3.75;;
61003;SDS011;46889;37.310;13.582;2022-12-24T04:22:17;20.73;;;3.83;;
61003;SDS011;46889;37.310;13.582;2022-12-24T04:24:49;21.35;;;3.78;;
61003;SDS011;46889;37.310;13.582;2022-12-24T04:27:34;21.02;;;3.80;;
61003;SDS011;46889;37.310;13.582;2022-12-24T04:30:02;14.93;;;3.65;;
61003;SDS011;46889;37.310;13.582;2022-12-24T04:32:32;21.05;;;4.10;;
61003;SDS011;46889;37.310;13.582;2022-12-24T04:37:55;20.90;;;3.78;;
61003;SDS011;46889;37.310;13.582;2022-12-24T04:40:21;15.82;;;3.28;;
61003;SDS011;46889;37.310;13.582;2022-12-24T04:42:47;18.47;;;3.70;;
61003;SDS011;46889;37.310;13.582;2022-12-24T04:45:18;14.75;;;3.13;;
61003;SDS011;46889;37.310;13.582;2022-12-24T04:47:44;17.85;;;3.20;;
61003;SDS011;46889;37.310;13.582;2022-12-24T04:50:10;21.63;;;3.58;;
61003;SDS011;46889;37.310;13.582;2022-12-24T04:52:36;13.20;;;3.13;;
61003;SDS011;46889;37.310;13.582;2022-12-24T04:55:03;15.48;;;3.55;;
61003;SDS011;46889;37.310;13.582;2022-12-24T04:57:30;16.85;;;3.70;;
61003;SDS011;46889;37.310;13.582;2022-12-24T04:59:58;19.10;;;3.50;;
61003;SDS011;46889;37.310;13.582;2022-12-24T05:02:26;17.08;;;3.35;;
61003;SDS011;46889;37.310;13.582;2022-12-24T05:04:57;16.20;;;3.53;;
61003;SDS011;46889;37.310;13.582;2022-12-24T05:07:23;19.30;;;3.03;;
61003;SDS011;46889;37.310;13.582;2022-12-24T05:09:49;18.03;;;3.37;;
61003;SDS011;46889;37.310;13.582;2022-12-24T05:12:17;17.27;;;3.20;;
61003;SDS011;46889;37.310;13.582;2022-12-24T05:14:44;16.17;;;3.10;;
61003;SDS011;46889;37.310;13.582;2022-12-24T05:17:11;21.75;;;3.50;;
61003;SDS011;46889;37.310;13.582;2022-12-24T05:19:40;19.48;;;3.45;;
61003;SDS011;46889;37.310;13.582;2022-12-24T05:22:06;16.17;;;3.63;;
61003;SDS011;46889;37.310;13.582;2022-12-24T05:24:52;19.38;;;2.90;;
61003;SDS011;46889;37.310;13.582;2022-12-24T05:27:36;14.52;;;3.05;;
61003;SDS011;46889;37.310;13.582;2022-12-24T05:30:04;13.23;;;2.72;;
61003;SDS011;46889;37.310;13.582;2022-12-24T05:32:37;16.30;;;2.92;;
61003;SDS011;46889;37.310;13.582;2022-12-24T05:38:14;17.50;;;2.70;;
61003;SDS011;46889;37.310;13.582;2022-12-24T05:40:46;19.45;;;3.17;;
61003;SDS011;46889;37.310;13.582;2022-12-24T05:43:13;16.73;;;3.60;;
61003;SDS011;46889;37.310;13.582;2022-12-24T05:45:40;15.97;;;3.10;;
61003;SDS011;46889;37.310;13.582;2022-12-24T05:48:07;16.25;;;3.03;;
61003;SDS011;46889;37.310;13.582;2022-12-24T05:50:38;12.65;;;2.67;;
61003;SDS011;46889;37.310;13.582;2022-12-24T05:53:07;15.30;;;2.55;;
61003;SDS011;46889;37.310;13.582;2022-12-24T05:55:33;17.90;;;3.00;;
61003;SDS011;46889;37.310;13.582;2022-12-24T05:58:00;13.23;;;2.63;;
61003;SDS011;46889;37.310;13.582;2022-12-24T06:00:26;17.15;;;2.95;;
61003;SDS011;46889;37.310;13.582;2022-12-24T06:02:52;18.58;;;2.92;;
61003;SDS011;46889;37.310;13.582;2022-12-24T06:07:46;17.95;;;2.90;;
61003;SDS011;46889;37.310;13.582;2022-12-24T06:10:13;17.70;;;2.72;;
61003;SDS011;46889;37.310;13.582;2022-12-24T06:12:41;11.40;;;2.80;;
61003;SDS011;46889;37.310;13.582;2022-12-24T06:15:07;21.17;;;3.10;;
61003;SDS011;46889;37.310;13.582;2022-12-24T06:17:36;18.92;;;2.70;;
61003;SDS011;46889;37.310;13.582;2022-12-24T06:20:03;16.17;;;3.03;;
61003;SDS011;46889;37.310;13.582;2022-12-24T06:22:31;12.90;;;2.85;;
61003;SDS011;46889;37.310;13.582;2022-12-24T06:24:58;14.75;;;2.70;;
61003;SDS011;46889;37.310;13.582;2022-12-24T06:27:27;11.57;;;2.70;;
61003;SDS011;46889;37.310;13.582;2022-12-24T06:30:01;17.88;;;2.95;;
61003;SDS011;46889;37.310;13.582;2022-12-24T06:32:34;13.45;;;2.63;;
61003;SDS011;46889;37.310;13.582;2022-12-24T06:35:00;15.23;;;2.73;;
61003;SDS011;46889;37.310;13.582;2022-12-24T06:37:26;13.47;;;2.90;;
61003;SDS011;46889;37.310;13.582;2022-12-24T06:40:30;16.88;;;3.35;;
61003;SDS011;46889;37.310;13.582;2022-12-24T06:42:58;16.15;;;3.17;;
61003;SDS011;46889;37.310;13.582;2022-12-24T06:45:24;16.50;;;2.73;;
61003;SDS011;46889;37.310;13.582;2022-12-24T06:48:00;16.23;;;2.83;;
61003;SDS011;46889;37.310;13.582;2022-12-24T06:50:27;12.43;;;3.15;;
61003;SDS011;46889;37.310;13.582;2022-12-24T06:52:53;16.88;;;2.80;;
61003;SDS011;46889;37.310;13.582;2022-12-24T06:58:17;13.77;;;2.70;;
61003;SDS011;46889;37.310;13.582;2022-12-24T07:00:43;15.90;;;2.83;;
61003;SDS011;46889;37.310;13.582;2022-12-24T07:03:11;15.85;;;3.00;;
61003;SDS011;46889;37.310;13.582;2022-12-24T07:05:37;11.75;;;2.70;;
61003;SDS011;46889;37.310;13.582;2022-12-24T07:08:09;11.88;;;2.67;;
61003;SDS011;46889;37.310;13.582;2022-12-24T07:10:35;11.70;;;3.17;;
61003;SDS011;46889;37.310;13.582;2022-12-24T07:13:02;14.18;;;3.15;;
61003;SDS011;46889;37.310;13.582;2022-12-24T07:15:43;14.23;;;3.35;;
61003;SDS011;46889;37.310;13.582;2022-12-24T07:18:11;10.90;;;2.38;;
61003;SDS011;46889;37.310;13.582;2022-12-24T07:20:41;13.25;;;3.15;;
61003;SDS011;46889;37.310;13.582;2022-12-24T07:23:08;14.63;;;2.72;;
61003;SDS011;46889;37.310;13.582;2022-12-24T07:25:35;12.05;;;2.90;;
61003;SDS011;46889;37.310;13.582;2022-12-24T07:30:26;15.57;;;3.33;;
61003;SDS011;46889;37.310;13.582;2022-12-24T07:32:56;14.00;;;3.25;;
61003;SDS011;46889;37.310;13.582;2022-12-24T07:35:23;13.88;;;2.92;;
61003;SDS011;46889;37.310;13.582;2022-12-24T07:38:00;18.55;;;3.38;;
61003;SDS011;46889;37.310;13.582;2022-12-24T07:41:09;14.70;;;3.22;;
61003;SDS011;46889;37.310;13.582;2022-12-24T07:47:30;16.27;;;2.92;;
61003;SDS011;46889;37.310;13.582;2022-12-24T07:50:19;15.13;;;2.70;;
61003;SDS011;46889;37.310;13.582;2022-12-24T07:52:45;11.75;;;2.95;;
61003;SDS011;46889;37.310;13.582;2022-12-24T07:58:56;15.35;;;2.58;;
61003;SDS011;46889;37.310;13.582;2022-12-24T08:02:14;13.30;;;2.28;;
61003;SDS011;46889;37.310;13.582;2022-12-24T08:05:07;11.23;;;2.53;;
61003;SDS011;46889;37.310;13.582;2022-12-24T08:07:44;14.85;;;2.65;;
61003;SDS011;46889;37.310;13.582;2022-12-24T08:10:11;14.00;;;2.80;;
61003;SDS011;46889;37.310;13.582;2022-12-24T08:12:53;12.38;;;2.30;;
61003;SDS011;46889;37.310;13.582;2022-12-24T08:15:40;16.15;;;2.40;;
61003;SDS011;46889;37.310;13.582;2022-12-24T08:22:07;13.98;;;2.85;;
61003;SDS011;46889;37.310;13.582;2022-12-24T08:24:51;9.43;;;2.15;;
61003;SDS011;46889;37.310;13.582;2022-12-24T08:27:17;11.40;;;3.58;;
61003;SDS011;46889;37.310;13.582;2022-12-24T08:29:48;12.95;;;2.65;;
61003;SDS011;46889;37.310;13.582;2022-12-24T08:32:23;11.48;;;2.70;;
61003;SDS011;46889;37.310;13.582;2022-12-24T08:34:53;13.95;;;3.08;;
61003;SDS011;46889;37.310;13.582;2022-12-24T08:37:19;14.70;;;2.50;;
61003;SDS011;46889;37.310;13.582;2022-12-24T08:39:45;8.68;;;2.72;;
61003;SDS011;46889;37.310;13.582;2022-12-24T08:42:23;12.70;;;3.25;;
61003;SDS011;46889;37.310;13.582;2022-12-24T08:44:49;15.23;;;3.30;;
61003;SDS011;46889;37.310;13.582;2022-12-24T08:47:22;14.43;;;3.90;;
61003;SDS011;46889;37.310;13.582;2022-12-24T08:49:48;18.35;;;5.78;;
61003;SDS011;46889;37.310;13.582;2022-12-24T08:52:14;14.18;;;3.40;;
61003;SDS011;46889;37.310;13.582;2022-12-24T08:54:41;21.45;;;3.78;;
61003;SDS011;46889;37.310;13.582;2022-12-24T08:57:08;12.40;;;3.42;;
61003;SDS011;46889;37.310;13.582;2022-12-24T09:02:02;14.10;;;2.85;;
61003;SDS011;46889;37.310;13.582;2022-12-24T09:04:29;16.75;;;2.88;;
61003;SDS011;46889;37.310;13.582;2022-12-24T09:06:55;14.68;;;2.95;;
61003;SDS011;46889;37.310;13.582;2022-12-24T09:09:21;15.90;;;3.05;;
61003;SDS011;46889;37.310;13.582;2022-12-24T09:11:48;11.68;;;3.28;;
61003;SDS011;46889;37.310;13.582;2022-12-24T09:14:17;13.45;;;3.67;;
61003;SDS011;46889;37.310;13.582;2022-12-24T09:16:43;10.40;;;3.00;;
61003;SDS011;46889;37.310;13.582;2022-12-24T09:19:09;13.43;;;3.35;;
61003;SDS011;46889;37.310;13.582;2022-12-24T09:21:35;16.65;;;3.75;;
61003;SDS011;46889;37.310;13.582;2022-12-24T09:24:02;13.02;;;3.67;;
61003;SDS011;46889;37.310;13.582;2022-12-24T09:26:29;12.10;;;3.28;;
61003;SDS011;46889;37.310;13.582;2022-12-24T09:31:50;12.43;;;3.13;;
61003;SDS011;46889;37.310;13.582;2022-12-24T09:34:16;11.32;;;2.92;;
61003;SDS011;46889;37.310;13.582;2022-12-24T09:36:42;13.95;;;3.45;;
61003;SDS011;46889;37.310;13.582;2022-12-24T09:39:10;13.68;;;3.13;;
61003;SDS011;46889;37.310;13.582;2022-12-24T09:46:55;17.35;;;4.68;;
61003;SDS011;46889;37.310;13.582;2022-12-24T09:49:27;17.38;;;4.53;;
61003;SDS011;46889;37.310;13.582;2022-12-24T09:52:04;18.20;;;3.83;;
61003;SDS011;46889;37.310;13.582;2022-12-24T09:54:40;29.17;;;4.40;;
61003;SDS011;46889;37.310;13.582;2022-12-24T10:02:54;11.63;;;3.53;;
61003;SDS011;46889;37.310;13.582;2022-12-24T10:05:34;16.40;;;4.07;;
61003;SDS011;46889;37.310;13.582;2022-12-24T10:11:25;11.13;;;3.45;;
61003;SDS011;46889;37.310;13.582;2022-12-24T10:14:17;13.52;;;3.72;;
61003;SDS011;46889;37.310;13.582;2022-12-24T10:17:03;15.25;;;3.95;;
61003;SDS011;46889;37.310;13.582;2022-12-24T10:26:19;17.05;;;4.25;;
61003;SDS011;46889;37.310;13.582;2022-12-24T10:28:29;17.48;;;3.75;;
61003;SDS011;46889;37.310;13.582;2022-12-24T10:31:04;18.95;;;4.10;;
61003;SDS011;46889;37.310;13.582;2022-12-24T10:33:35;21.52;;;4.68;;
61003;SDS011;46889;37.310;13.582;2022-12-24T10:36:08;15.77;;;4.40;;
61003;SDS011;46889;37.310;13.582;2022-12-24T10:38:40;16.05;;;4.03;;
61003;SDS011;46889;37.310;13.582;2022-12-24T10:41:06;17.13;;;4.05;;
61003;SDS011;46889;37.310;13.582;2022-12-24T10:46:03;19.33;;;4.10;;
61003;SDS011;46889;37.310;13.582;2022-12-24T10:48:56;12.90;;;3.75;;
61003;SDS011;46889;37.310;13.582;2022-12-24T10:51:50;15.65;;;4.03;;
61003;SDS011;46889;37.310;13.582;2022-12-24T10:57:46;15.40;;;3.95;;
61003;SDS011;46889;37.310;13.582;2022-12-24T11:00:27;12.80;;;3.45;;
61003;SDS011;46889;37.310;13.582;2022-12-24T11:05:38;15.80;;;3.88;;
61003;SDS011;46889;37.310;13.582;2022-12-24T11:08:12;17.33;;;4.45;;
61003;SDS011;46889;37.310;13.582;2022-12-24T11:13:54;14.23;;;3.88;;
61003;SDS011;46889;37.310;13.582;2022-12-24T11:18:58;14.13;;;4.03;;
61003;SDS011;46889;37.310;13.582;2022-12-24T11:21:32;16.50;;;4.25;;
61003;SDS011;46889;37.310;13.582;2022-12-24T11:24:57;16.50;;;4.22;;
61003;SDS011;46889;37.310;13.582;2022-12-24T11:27:32;15.85;;;4.35;;
61003;SDS011;46889;37.310;13.582;2022-12-24T11:32:46;12.95;;;4.03;;
61003;SDS011;46889;37.310;13.582;2022-12-24T11:35:15;16.13;;;4.30;;
61003;SDS011;46889;37.310;13.582;2022-12-24T11:37:50;16.50;;;4.13;;
61003;SDS011;46889;37.310;13.582;2022-12-24T11:40:44;18.40;;;4.50;;
61003;SDS011;46889;37.310;13.582;2022-12-24T11:43:14;18.08;;;5.00;;
61003;SDS011;46889;37.310;13.582;2022-12-24T11:45:50;20.52;;;5.45;;
61003;SDS011;46889;37.310;13.582;2022-12-24T11:48:31;16.85;;;4.78;;
61003;SDS011;46889;37.310;13.582;2022-12-24T11:51:25;18.08;;;4.68;;
61003;SDS011;46889;37.310;13.582;2022-12-24T11:56:37;13.37;;;4.50;;
61003;SDS011;46889;37.310;13.582;2022-12-24T11:59:21;17.70;;;4.38;;
61003;SDS011;46889;37.310;13.582;2022-12-24T12:04:43;20.67;;;4.65;;
61003;SDS011;46889;37.310;13.582;2022-12-24T12:07:16;17.08;;;4.25;;
61003;SDS011;46889;37.310;13.582;2022-12-24T12:15:50;16.73;;;4.75;;
61003;SDS011;46889;37.310;13.582;2022-12-24T12:18:27;13.15;;;4.00;;
61003;SDS011;46889;37.310;13.582;2022-12-24T12:21:22;18.67;;;4.20;;
61003;SDS011;46889;37.310;13.582;2022-12-24T12:24:41;14.80;;;4.28;;
61003;SDS011;46889;37.310;13.582;2022-12-24T12:26:56;16.25;;;4.70;;
61003;SDS011;46889;37.310;13.582;2022-12-24T12:29:55;13.65;;;4.35;;
61003;SDS011;46889;37.310;13.582;2022-12-24T12:32:59;16.63;;;5.00;;
61003;SDS011;46889;37.310;13.582;2022-12-24T12:35:39;14.68;;;4.50;;
61003;SDS011;46889;37.310;13.582;2022-12-24T12:38:21;14.95;;;5.10;;
61003;SDS011;46889;37.310;13.582;2022-12-24T12:49:36;13.77;;;4.20;;
61003;SDS011;46889;37.310;13.582;2022-12-24T12:53:16;16.15;;;4.05;;
61003;SDS011;46889;37.310;13.582;2022-12-24T12:55:51;12.50;;;3.88;;
61003;SDS011;46889;37.310;13.582;2022-12-24T12:58:26;12.57;;;3.17;;
61003;SDS011;46889;37.310;13.582;2022-12-24T13:01:00;13.43;;;3.53;;
61003;SDS011;46889;37.310;13.582;2022-12-24T13:15:31;12.82;;;3.33;;
61003;SDS011;46889;37.310;13.582;2022-12-24T13:20:46;13.07;;;3.88;;
61003;SDS011;46889;37.310;13.582;2022-12-24T13:23:17;11.68;;;3.20;;
61003;SDS011;46889;37.310;13.582;2022-12-24T13:25:52;14.05;;;3.83;;
61003;SDS011;46889;37.310;13.582;2022-12-24T13:30:52;11.13;;;3.42;;
61003;SDS011;46889;37.310;13.582;2022-12-24T13:33:45;11.50;;;3.20;;
61003;SDS011;46889;37.310;13.582;2022-12-24T13:36:18;15.88;;;3.95;;
61003;SDS011;46889;37.310;13.582;2022-12-24T13:38:51;17.27;;;4.32;;
61003;SDS011;46889;37.310;13.582;2022-12-24T13:54:42;22.52;;;4.28;;
61003;SDS011;46889;37.310;13.582;2022-12-24T14:00:06;20.85;;;4.53;;
61003;SDS011;46889;37.310;13.582;2022-12-24T14:02:52;26.48;;;5.07;;
61003;SDS011;46889;37.310;13.582;2022-12-24T14:08:27;15.55;;;3.78;;
61003;SDS011;46889;37.310;13.582;2022-12-24T14:16:21;19.20;;;4.38;;
61003;SDS011;46889;37.310;13.582;2022-12-24T14:19:20;17.48;;;4.20;;
61003;SDS011;46889;37.310;13.582;2022-12-24T14:25:12;19.52;;;4.60;;
61003;SDS011;46889;37.310;13.582;2022-12-24T14:27:50;18.17;;;4.35;;
61003;SDS011;46889;37.310;13.582;2022-12-24T14:30:37;21.85;;;4.35;;
61003;SDS011;46889;37.310;13.582;2022-12-24T14:35:50;22.58;;;4.45;;
61003;SDS011;46889;37.310;13.582;2022-12-24T14:38:20;23.35;;;4.68;;
61003;SDS011;46889;37.310;13.582;2022-12-24T14:40:54;21.33;;;4.57;;
61003;SDS011;46889;37.310;13.582;2022-12-24T14:49:27;17.63;;;4.13;;
61003;SDS011;46889;37.310;13.582;2022-12-24T14:52:17;18.70;;;4.13;;
61003;SDS011;46889;37.310;13.582;2022-12-24T14:54:51;17.70;;;4.00;;
61003;SDS011;46889;37.310;13.582;2022-12-24T14:59:58;16.52;;;4.40;;
61003;SDS011;46889;37.310;13.582;2022-12-24T15:02:47;14.00;;;4.10;;
61003;SDS011;46889;37.310;13.582;2022-12-24T15:05:17;20.45;;;5.50;;
61003;SDS011;46889;37.310;13.582;2022-12-24T15:07:57;17.92;;;5.10;;
61003;SDS011;46889;37.310;13.582;2022-12-24T15:10:27;18.20;;;5.00;;
61003;SDS011;46889;37.310;13.582;2022-12-24T15:15:30;16.48;;;4.07;;
61003;SDS011;46889;37.310;13.582;2022-12-24T15:17:58;19.55;;;4.80;;
61003;SDS011;46889;37.310;13.582;2022-12-24T15:20:35;24.63;;;5.35;;
61003;SDS011;46889;37.310;13.582;2022-12-24T15:23:18;17.55;;;4.32;;
61003;SDS011;46889;37.310;13.582;2022-12-24T15:25:45;14.20;;;4.07;;
61003;SDS011;46889;37.310;13.582;2022-12-24T15:28:22;22.67;;;4.10;;
61003;SDS011;46889;37.310;13.582;2022-12-24T15:30:50;21.13;;;4.70;;
61003;SDS011;46889;37.310;13.582;2022-12-24T15:33:43;18.30;;;3.88;;
61003;SDS011;46889;37.310;13.582;2022-12-24T15:39:16;20.23;;;4.47;;
61003;SDS011;46889;37.310;13.582;2022-12-24T15:41:49;20.73;;;4.95;;
61003;SDS011;46889;37.310;13.582;2022-12-24T15:44:35;18.63;;;3.78;;
61003;SDS011;46889;37.310;13.582;2022-12-24T15:47:06;13.50;;;3.78;;
61003;SDS011;46889;37.310;13.582;2022-12-24T15:49:46;15.13;;;4.05;;
61003;SDS011;46889;37.310;13.582;2022-12-24T15:52:17;15.25;;;4.05;;
61003;SDS011;46889;37.310;13.582;2022-12-24T15:54:48;13.57;;;3.72;;
61003;SDS011;46889;37.310;13.582;2022-12-24T15:57:31;18.95;;;4.10;;
61003;SDS011;46889;37.310;13.582;2022-12-24T16:02:47;12.43;;;4.03;;
61003;SDS011;46889;37.310;13.582;2022-12-24T16:05:17;18.10;;;4.07;;
61003;SDS011;46889;37.310;13.582;2022-12-24T16:08:06;16.92;;;4.70;;
61003;SDS011;46889;37.310;13.582;2022-12-24T16:13:49;21.70;;;4.93;;
61003;SDS011;46889;37.310;13.582;2022-12-24T16:16:33;17.52;;;4.70;;
61003;SDS011;46889;37.310;13.582;2022-12-24T16:19:14;19.58;;;4.88;;
61003;SDS011;46889;37.310;13.582;2022-12-24T16:21:52;19.25;;;4.47;;
61003;SDS011;46889;37.310;13.582;2022-12-24T16:24:21;17.35;;;4.25;;
61003;SDS011;46889;37.310;13.582;2022-12-24T16:26:53;23.40;;;4.57;;
61003;SDS011;46889;37.310;13.582;2022-12-24T16:29:21;23.90;;;4.55;;
61003;SDS011;46889;37.310;13.582;2022-12-24T16:35:04;20.10;;;5.07;;
61003;SDS011;46889;37.310;13.582;2022-12-24T16:38:22;11.13;;;4.40;;
61003;SDS011;46889;37.310;13.582;2022-12-24T16:41:15;18.23;;;5.35;;
61003;SDS011;46889;37.310;13.582;2022-12-24T16:43:42;16.40;;;4.50;;
61003;SDS011;46889;37.310;13.582;2022-12-24T16:46:15;18.20;;;5.03;;
61003;SDS011;46889;37.310;13.582;2022-12-24T16:48:46;17.52;;;4.47;;
61003;SDS011;46889;37.310;13.582;2022-12-24T16:51:24;20.55;;;4.78;;
61003;SDS011;46889;37.310;13.582;2022-12-24T16:53:50;20.40;;;5.55;;
61003;SDS011;46889;37.310;13.582;2022-12-24T16:56:17;18.98;;;4.93;;
61003;SDS011;46889;37.310;13.582;2022-12-24T16:58:44;16.63;;;4.60;;
61003;SDS011;46889;37.310;13.582;2022-12-24T17:01:11;20.75;;;4.57;;
61003;SDS011;46889;37.310;13.582;2022-12-24T17:03:37;15.40;;;4.78;;
61003;SDS011;46889;37.310;13.582;2022-12-24T17:06:03;14.57;;;4.88;;
61003;SDS011;46889;37.310;13.582;2022-12-24T17:08:30;22.55;;;4.85;;
61003;SDS011;46889;37.310;13.582;2022-12-24T17:10:57;17.50;;;4.88;;
61003;SDS011;46889;37.310;13.582;2022-12-24T17:13:23;18.58;;;5.07;;
61003;SDS011;46889;37.310;13.582;2022-12-24T17:15:52;15.07;;;4.50;;
61003;SDS011;46889;37.310;13.582;2022-12-24T17:18:20;20.63;;;4.68;;
61003;SDS011;46889;37.310;13.582;2022-12-24T17:20:55;20.45;;;4.68;;
61003;SDS011;46889;37.310;13.582;2022-12-24T17:23:23;21.75;;;5.13;;
61003;SDS011;46889;37.310;13.582;2022-12-24T17:26:03;23.08;;;5.18;;
61003;SDS011;46889;37.310;13.582;2022-12-24T17:28:29;22.63;;;5.20;;
61003;SDS011;46889;37.310;13.582;2022-12-24T17:31:09;18.65;;;4.97;;
61003;SDS011;46889;37.310;13.582;2022-12-24T17:33:37;18.10;;;5.03;;
61003;SDS011;46889;37.310;13.582;2022-12-24T17:36:03;18.00;;;4.85;;
61003;SDS011;46889;37.310;13.582;2022-12-24T17:38:33;22.13;;;5.15;;
61003;SDS011;46889;37.310;13.582;2022-12-24T17:41:12;19.27;;;5.13;;
61003;SDS011;46889;37.310;13.582;2022-12-24T17:43:40;21.35;;;5.93;;
61003;SDS011;46889;37.310;13.582;2022-12-24T17:46:07;18.80;;;5.10;;
61003;SDS011;46889;37.310;13.582;2022-12-24T17:57:55;18.05;;;4.97;;
61003;SDS011;46889;37.310;13.582;2022-12-24T18:06:57;20.45;;;5.32;;
61003;SDS011;46889;37.310;13.582;2022-12-24T18:09:24;22.02;;;5.50;;
61003;SDS011;46889;37.310;13.582;2022-12-24T18:11:50;26.38;;;5.82;;
61003;SDS011;46889;37.310;13.582;2022-12-24T18:14:18;19.75;;;5.32;;
61003;SDS011;46889;37.310;13.582;2022-12-24T18:16:46;20.70;;;4.75;;
61003;SDS011;46889;37.310;13.582;2022-12-24T18:19:13;21.92;;;4.95;;
61003;SDS011;46889;37.310;13.582;2022-12-24T18:21:39;20.02;;;4.88;;
61003;SDS011;46889;37.310;13.582;2022-12-24T18:24:06;19.05;;;4.53;;
61003;SDS011;46889;37.310;13.582;2022-12-24T18:26:33;22.33;;;4.78;;
61003;SDS011;46889;37.310;13.582;2022-12-24T18:42:14;17.45;;;4.00;;
61003;SDS011;46889;37.310;13.582;2022-12-24T18:44:51;15.15;;;4.80;;
61003;SDS011;46889;37.310;13.582;2022-12-24T18:47:18;16.88;;;4.45;;
61003;SDS011;46889;37.310;13.582;2022-12-24T18:49:44;13.15;;;4.20;;
61003;SDS011;46889;37.310;13.582;2022-12-24T18:54:37;10.80;;;3.97;;
61003;SDS011;46889;37.310;13.582;2022-12-24T18:57:05;13.23;;;4.28;;
61003;SDS011;46889;37.310;13.582;2022-12-24T18:59:36;15.00;;;4.53;;
61003;SDS011;46889;37.310;13.582;2022-12-24T19:02:04;14.88;;;4.18;;